Portada
METAR-TAF:

METAR-TAF

Aeroports :

Krasnoiarsk, Rússia

latitud: 56-10-18N, longitud: 092-29-36E, altitud: 287 m

Observació

L'informe es va fer fa 14 minuts, a les 12:00 UTC
Vent 14 kt del Oest amb ràfegues de 27 kt
Temperatura 7°C
Humitat 31%
Pressió 1019 hPa
Visibilitat 10 km o més
sense núvols per sota de 1500 mi sense presència de cumulonimbus.

METAR: UNKL 311200Z 26007G14MPS CAVOK 07/M09 Q1019 WS R29 R29/CLRD65 NOSIG RMK QFE739

Hora: 19:14 (12:14 UTC)

Pronòstic

L'informe es va fer fa 1 hora i 17 minuts, a les 10:57 UTC
Pronòstic vàlid del 31 a les 12 UTC al 01 a les 12 UTC
Vent 16 kt del Oest amb ràfegues de 31 kt
Visibilitat 10 km o més
Núvols disperses a una alçada de 3000 ft
Evolucionant progressivament
l' 31 a les 15 UTC al 31 a les 17 UTC
Vent 6 kt del Oest/Sud-Oest amb ràfegues de 19 kt

TAF: UNKL 311057Z 3112/0112 26008G16MPS 9999 SCT030 BECMG 3115/3117 24003G10MPS

Observacions i pronòstics meteorològics de més de 4000 aeroports (METAR i TAF).

Les estacions disponibles són els punts grocs i vermells al mapa.

Posi el ratolí al punt desitjat per veure el nom de l'estació.

Feu clic per veure les observacions i els pronòstics meteorològics.

Per canviar el mapa: feu clic els botons verds amb una creu de color negre per apropar; al botó verd amb un guió per allunyar la imatge; o en les fletxes verdes per a mapes adjacents.


METAR-TAF: